Time;durP1;ratioP1;P1;durP2;ratioP2;P2;SDS_P1;SDS_P2;PMS_P1;PMS_P2;Temp;Humidity;BMP_temperature;BMP_pressure;BME280_temperature;BME280_humidity;BME280_pressure;Samples;Min_cycle;Max_cycle;Signal;HPM_P1;HPM_P2
2023/09/23 00:01:46;;;;;;;;;;;;;;;-144.99;100.00;52393.06;5073561;28;19942;-65
2023/09/23 00:04:12;;;;;;;;;;;;;;;-144.99;100.00;52366.56;5074793;28;19983;-65
2023/09/23 00:06:40;;;;;;;;;;;;;;;-144.99;100.00;52413.44;5077100;28;20281;-65
2023/09/23 00:09:10;;;;;;;;;;;;;;;-144.99;100.00;52391.03;5074487;28;19980;-65
2023/09/23 00:11:37;;;;;;;;;;;;;;;-144.99;100.00;52393.06;5066239;28;20257;-63
2023/09/23 00:14:05;;;;;;;;;;;;;;;-144.99;100.00;52374.72;5065004;28;19942;-64
2023/09/23 00:16:32;;;;;;;;;;;;;;;-144.99;100.00;52366.56;5063909;28;19991;-64
2023/09/23 00:18:58;;;;;;;;;;;;;;;-144.99;100.00;52370.63;5075301;28;20479;-64
2023/09/23 00:21:25;;;;;;;;;;;;;;;-144.99;100.00;52370.63;5083311;28;19958;-64
2023/09/23 00:23:52;;;;;;;;;;;;;;;-144.99;100.00;52382.88;5069441;28;19949;-64
2023/09/23 00:26:20;;;;;;;;;;;;;;;-144.99;100.00;52366.56;5070194;28;19965;-64
2023/09/23 00:28:46;;;;;;;;;;;;;;;-144.99;100.00;52366.56;5067197;28;20034;-63
2023/09/23 00:31:14;;;;;;;;;;;;;;;-144.99;100.00;52399.19;5064261;28;19943;-64
2023/09/23 00:33:41;;;;;;;;;;;;;;;-144.99;100.00;52399.19;5064483;28;19961;-63
2023/09/23 00:36:09;;;;;;;;;;;;;;;-144.99;100.00;52370.63;5073835;28;19940;-66
2023/09/23 00:38:35;;;;;;;;;;;;;;;-144.99;100.00;52378.78;5080885;28;20433;-68
2023/09/23 00:41:02;;;;;;;;;;;;;;;-144.99;100.00;52370.63;5088875;28;19942;-65
2023/09/23 00:43:32;;;;;;;;;;;;;;;-144.99;100.00;52395.09;5084717;28;20441;-65
2023/09/23 00:45:59;;;;;;;;;;;;;;;-144.99;100.00;52391.03;5077444;28;20005;-66
2023/09/23 00:48:26;;;;;;;;;;;;;;;-144.99;100.00;52374.72;5084327;28;20038;-63
2023/09/23 00:50:54;;;;;;;;;;;;;;;-144.99;100.00;52391.03;5095631;28;20438;-64
2023/09/23 00:53:21;;;;;;;;;;;;;;;-144.99;100.00;52370.63;5088670;28;19949;-64
2023/09/23 00:55:52;;;;;;;;;;;;;;;-144.99;100.00;52386.94;5079522;28;20423;-64
2023/09/23 00:58:20;;;;;;;;;;;;;;;-144.99;100.00;52407.31;5083233;28;20044;-64
2023/09/23 01:00:49;;;;;;;;;;;;;;;-144.99;100.00;52403.25;5081810;28;19977;-63
2023/09/23 01:03:16;;;;;;;;;;;;;;;-144.99;100.00;52344.16;5090207;28;19938;-64
2023/09/23 01:05:43;;;;;;;;;;;;;;;-144.99;100.00;52378.78;4726945;28;9999624;-65
2023/09/23 01:08:12;;;;;;;;;;;;;;;-144.99;100.00;52378.78;5087050;28;20050;-66
2023/09/23 01:10:39;;;;;;;;;;;;;;;-144.99;100.00;52366.56;5083924;28;19963;-66
2023/09/23 01:13:14;;;;;;;;;;;;;;;-144.99;100.00;52378.78;5068580;28;19982;-66
2023/09/23 01:18:21;;;;;;;;;;;;;;;-144.99;100.00;52407.31;5025208;28;19984;-72
2023/09/23 01:20:49;;;;;;;;;;;;;;;-144.99;100.00;52354.34;5039283;28;19968;-73
2023/09/23 01:23:17;;;;;;;;;;;;;;;-144.99;100.00;52378.78;5058004;28;20202;-73
2023/09/23 01:25:44;;;;;;;;;;;;;;;-144.99;100.00;52368.59;5035245;28;19943;-73
2023/09/23 01:28:12;;;;;;;;;;;;;;;-144.99;100.00;52342.09;5018268;28;19977;-72
2023/09/23 01:30:39;;;;;;;;;;;;;;;-144.99;100.00;52386.94;5018102;28;20109;-73
2023/09/23 01:33:07;;;;;;;;;;;;;;;-144.99;100.00;52366.56;5023631;28;19994;-73
2023/09/23 01:35:34;;;;;;;;;;;;;;;-144.99;100.00;52403.25;5027489;28;20897;-72
2023/09/23 01:38:04;;;;;;;;;;;;;;;-144.99;100.00;52333.94;5020597;28;20361;-73
2023/09/23 01:40:32;;;;;;;;;;;;;;;-144.99;100.00;52342.09;5019056;28;20019;-73
2023/09/23 01:42:59;;;;;;;;;;;;;;;-144.99;100.00;52350.25;5022574;28;20424;-73
2023/09/23 01:45:26;;;;;;;;;;;;;;;-144.99;100.00;52378.78;5019564;28;20047;-72
2023/09/23 01:47:56;;;;;;;;;;;;;;;-144.99;100.00;52346.19;5019106;28;19959;-73
2023/09/23 01:50:23;;;;;;;;;;;;;;;-144.99;100.00;52362.50;5018784;28;19933;-72
2023/09/23 01:52:49;;;;;;;;;;;;;;;-144.99;100.00;52360.44;5028466;28;19999;-72
2023/09/23 01:55:17;;;;;;;;;;;;;;;-144.99;100.00;52366.56;5032142;28;19962;-73
2023/09/23 01:57:45;;;;;;;;;;;;;;;-144.99;100.00;52372.69;5043310;28;19955;-73
2023/09/23 02:00:17;;;;;;;;;;;;;;;-144.99;100.00;52368.59;5055528;28;19937;-72
2023/09/23 02:02:44;;;;;;;;;;;;;;;-144.99;100.00;52333.94;5052286;28;20529;-73
2023/09/23 02:05:10;;;;;;;;;;;;;;;-144.99;100.00;52362.50;5054026;28;19926;-72
2023/09/23 02:07:36;;;;;;;;;;;;;;;-144.99;100.00;52360.44;5050527;28;19967;-74
2023/09/23 02:10:03;;;;;;;;;;;;;;;-144.99;100.00;52366.56;5053481;28;19933;-76
2023/09/23 02:12:32;;;;;;;;;;;;;;;-144.99;100.00;52391.03;5054952;28;19943;-75
2023/09/23 02:14:59;;;;;;;;;;;;;;;-144.99;100.00;52358.41;5052300;28;20020;-71
2023/09/23 02:17:26;;;;;;;;;;;;;;;-144.99;100.00;52366.56;5041441;28;19967;-71
2023/09/23 02:19:53;;;;;;;;;;;;;;;-144.99;100.00;52378.78;5040690;28;19993;-71
2023/09/23 02:22:20;;;;;;;;;;;;;;;-144.99;100.00;52354.34;5044900;28;19944;-72
2023/09/23 02:24:47;;;;;;;;;;;;;;;-144.99;100.00;52350.25;5043034;28;19998;-75
2023/09/23 02:27:14;;;;;;;;;;;;;;;-144.99;100.00;52382.88;5048009;28;20032;-76
2023/09/23 02:29:41;;;;;;;;;;;;;;;-144.99;100.00;52333.94;5047541;28;20042;-75
2023/09/23 02:32:08;;;;;;;;;;;;;;;-144.99;100.00;52344.16;5054714;28;21045;-71
2023/09/23 02:34:36;;;;;;;;;;;;;;;-144.99;100.00;52358.41;5052950;28;19946;-70
2023/09/23 02:37:04;;;;;;;;;;;;;;;-144.99;100.00;52344.16;5055412;28;19966;-70
2023/09/23 02:39:31;;;;;;;;;;;;;;;-144.99;100.00;52395.09;5051679;28;19933;-70
2023/09/23 02:41:59;;;;;;;;;;;;;;;-144.99;100.00;52336.00;5052779;28;19941;-71
2023/09/23 02:44:29;;;;;;;;;;;;;;;-144.99;100.00;52374.72;5045568;28;19946;-72
2023/09/23 02:46:56;;;;;;;;;;;;;;;-144.99;100.00;52388.97;5027766;28;19961;-72
2023/09/23 02:49:24;;;;;;;;;;;;;;;-144.99;100.00;52350.25;5022819;28;20029;-72
2023/09/23 02:51:50;;;;;;;;;;;;;;;-144.99;100.00;52364.53;5022370;28;19943;-72
2023/09/23 02:54:18;;;;;;;;;;;;;;;-144.99;100.00;52352.28;5017225;28;20408;-72
2023/09/23 02:56:46;;;;;;;;;;;;;;;-144.99;100.00;52399.19;5017181;28;19954;-72
2023/09/23 02:59:13;;;;;;;;;;;;;;;-144.99;100.00;52342.09;5030304;28;20473;-72
2023/09/23 03:01:45;;;;;;;;;;;;;;;-144.99;100.00;52350.25;5026704;28;20042;-72
2023/09/23 03:04:16;;;;;;;;;;;;;;;-144.99;100.00;52370.63;5020309;28;19937;-72
2023/09/23 03:06:49;;;;;;;;;;;;;;;-144.99;100.00;52384.91;5025647;28;19958;-72
2023/09/23 03:09:15;;;;;;;;;;;;;;;-144.99;100.00;52358.41;5031106;28;19963;-73
2023/09/23 03:11:48;;;;;;;;;;;;;;;-144.99;100.00;52378.78;5036688;28;19966;-73
2023/09/23 03:14:18;;;;;;;;;;;;;;;-144.99;100.00;52376.75;5053104;28;19936;-72
2023/09/23 03:16:49;;;;;;;;;;;;;;;-144.99;100.00;52403.25;5045292;28;20031;-72
2023/09/23 03:19:24;;;;;;;;;;;;;;;-144.99;100.00;52309.50;5044104;28;19964;-71
2023/09/23 03:21:55;;;;;;;;;;;;;;;-144.99;100.00;52317.66;5044176;28;19932;-72
2023/09/23 03:24:21;;;;;;;;;;;;;;;-144.99;100.00;52403.25;5045263;28;20009;-71
2023/09/23 03:26:48;;;;;;;;;;;;;;;-144.99;100.00;52376.75;5041892;28;19949;-71
2023/09/23 03:29:15;;;;;;;;;;;;;;;-144.99;100.00;52342.09;5047911;28;20007;-72
2023/09/23 03:31:41;;;;;;;;;;;;;;;-144.99;100.00;52352.28;5045417;28;19965;-71
2023/09/23 03:34:08;;;;;;;;;;;;;;;-144.99;100.00;52333.94;5047155;28;19974;-70
2023/09/23 03:36:34;;;;;;;;;;;;;;;-144.99;100.00;52346.19;5044061;28;19983;-71
2023/09/23 03:39:03;;;;;;;;;;;;;;;-144.99;100.00;52354.34;5046830;28;20182;-71
2023/09/23 03:41:30;;;;;;;;;;;;;;;-144.99;100.00;52362.50;5044600;28;19970;-71
2023/09/23 03:43:56;;;;;;;;;;;;;;;-144.99;100.00;52346.19;5042703;28;19936;-71
2023/09/23 03:46:23;;;;;;;;;;;;;;;-144.99;100.00;52358.41;5045618;28;19960;-70
2023/09/23 03:48:50;;;;;;;;;;;;;;;-144.99;100.00;52360.44;5039924;28;19967;-70
2023/09/23 03:51:16;;;;;;;;;;;;;;;-144.99;100.00;52342.09;5047798;28;19944;-71
2023/09/23 03:53:43;;;;;;;;;;;;;;;-144.99;100.00;52329.88;5052741;28;19952;-72
2023/09/23 03:56:11;;;;;;;;;;;;;;;-144.99;100.00;52352.28;5050576;28;19949;-72
2023/09/23 03:58:38;;;;;;;;;;;;;;;-144.99;100.00;52336.00;5047967;28;19960;-71
2023/09/23 04:01:06;;;;;;;;;;;;;;;-144.99;100.00;52366.56;5049702;28;19988;-71
2023/09/23 04:03:34;;;;;;;;;;;;;;;-144.99;100.00;52354.34;5039853;28;19943;-72
2023/09/23 04:06:00;;;;;;;;;;;;;;;-144.99;100.00;52329.88;5042008;28;19974;-72
2023/09/23 04:08:27;;;;;;;;;;;;;;;-144.99;100.00;52374.72;5041687;28;19977;-72
2023/09/23 04:10:54;;;;;;;;;;;;;;;-144.99;100.00;52340.06;5045670;28;19990;-71
2023/09/23 04:13:22;;;;;;;;;;;;;;;-144.99;100.00;52338.03;5042528;28;19956;-72
2023/09/23 04:15:48;;;;;;;;;;;;;;;-144.99;100.00;52348.22;5044633;28;19959;-73
2023/09/23 04:18:15;;;;;;;;;;;;;;;-144.99;100.00;52374.72;5043482;28;19945;-72
2023/09/23 04:20:43;;;;;;;;;;;;;;;-144.99;100.00;52362.50;5040690;28;20032;-72
2023/09/23 04:23:10;;;;;;;;;;;;;;;-144.99;100.00;52364.53;5043608;28;19966;-72
2023/09/23 04:25:37;;;;;;;;;;;;;;;-144.99;100.00;52364.53;5044136;28;19969;-71
2023/09/23 04:28:03;;;;;;;;;;;;;;;-144.99;100.00;52366.56;5044672;28;19954;-72
2023/09/23 04:30:31;;;;;;;;;;;;;;;-144.99;100.00;52391.03;5045106;28;19929;-72
2023/09/23 04:32:57;;;;;;;;;;;;;;;-144.99;100.00;52370.63;5044024;28;19969;-72
2023/09/23 04:35:24;;;;;;;;;;;;;;;-144.99;100.00;52380.84;5044293;28;19932;-70
2023/09/23 04:37:51;;;;;;;;;;;;;;;-144.99;100.00;52333.94;5042747;28;19955;-71
2023/09/23 04:40:18;;;;;;;;;;;;;;;-144.99;100.00;52354.34;5040941;28;19947;-71
2023/09/23 04:42:45;;;;;;;;;;;;;;;-144.99;100.00;52378.78;5043430;28;19926;-73
2023/09/23 04:45:12;;;;;;;;;;;;;;;-144.99;100.00;52382.88;5044113;28;19932;-73
2023/09/23 04:47:41;;;;;;;;;;;;;;;-144.99;100.00;52346.19;5041242;28;19969;-72
2023/09/23 04:50:11;;;;;;;;;;;;;;;-144.99;100.00;52362.50;5043338;28;19960;-72
2023/09/23 04:52:38;;;;;;;;;;;;;;;-144.99;100.00;52368.59;5042884;28;19947;-71
2023/09/23 04:55:06;;;;;;;;;;;;;;;-144.99;100.00;52374.72;5042382;28;19953;-71
2023/09/23 04:57:33;;;;;;;;;;;;;;;-144.99;100.00;52358.41;5041087;28;19962;-72
2023/09/23 05:00:00;;;;;;;;;;;;;;;-144.99;100.00;52362.50;5042555;28;19935;-72
2023/09/23 05:02:27;;;;;;;;;;;;;;;-144.99;100.00;52356.38;5041916;28;19940;-72
2023/09/23 05:04:55;;;;;;;;;;;;;;;-144.99;100.00;52382.88;5044499;28;20311;-71
2023/09/23 05:07:21;;;;;;;;;;;;;;;-144.99;100.00;52374.72;5047249;28;19963;-72
2023/09/23 05:09:48;;;;;;;;;;;;;;;-144.99;100.00;52362.50;5050167;28;20025;-73
2023/09/23 05:12:14;;;;;;;;;;;;;;;-144.99;100.00;52374.72;5049441;28;20083;-72
2023/09/23 05:14:42;;;;;;;;;;;;;;;-144.99;100.00;52384.91;5047368;28;20222;-72
2023/09/23 05:17:10;;;;;;;;;;;;;;;-144.99;100.00;52399.19;5045527;28;20261;-72
2023/09/23 05:19:36;;;;;;;;;;;;;;;-144.99;100.00;52370.63;5044559;28;20874;-71
2023/09/23 05:22:04;;;;;;;;;;;;;;;-144.99;100.00;52366.56;5041776;28;19964;-71
2023/09/23 05:24:30;;;;;;;;;;;;;;;-144.99;100.00;52329.88;5042499;28;19949;-71
2023/09/23 05:26:59;;;;;;;;;;;;;;;-144.99;100.00;52372.69;5039852;28;19962;-72
2023/09/23 05:29:26;;;;;;;;;;;;;;;-144.99;100.00;52364.53;5041361;28;19956;-72
2023/09/23 05:31:53;;;;;;;;;;;;;;;-144.99;100.00;52386.94;5037016;28;19942;-70
2023/09/23 05:34:20;;;;;;;;;;;;;;;-144.99;100.00;52378.78;5031114;28;19971;-71
2023/09/23 05:36:47;;;;;;;;;;;;;;;-144.99;100.00;52321.72;5027245;28;19962;-72
2023/09/23 05:39:19;;;;;;;;;;;;;;;-144.99;100.00;52370.63;5027636;28;19988;-72
2023/09/23 05:41:45;;;;;;;;;;;;;;;-144.99;100.00;52391.03;5030113;28;20012;-73
2023/09/23 05:44:13;;;;;;;;;;;;;;;-144.99;100.00;52386.94;5042525;28;19948;-72
2023/09/23 05:46:41;;;;;;;;;;;;;;;-144.99;100.00;52354.34;5040756;28;19966;-71
2023/09/23 05:49:09;;;;;;;;;;;;;;;-144.99;100.00;52354.34;5036200;28;20025;-72
2023/09/23 05:51:35;;;;;;;;;;;;;;;-144.99;100.00;52374.72;5041088;28;19969;-72
2023/09/23 05:54:02;;;;;;;;;;;;;;;-144.99;100.00;52386.94;5027930;28;19939;-73
2023/09/23 05:56:30;;;;;;;;;;;;;;;-144.99;100.00;52350.25;5031031;28;19963;-72
2023/09/23 05:58:56;;;;;;;;;;;;;;;-144.99;100.00;52391.03;5020338;28;19939;-72
2023/09/23 06:01:23;;;;;;;;;;;;;;;-144.99;100.00;52333.94;5022003;28;20012;-73
2023/09/23 06:03:50;;;;;;;;;;;;;;;-144.99;100.00;52358.41;5020715;28;20330;-72
2023/09/23 06:06:16;;;;;;;;;;;;;;;-144.99;100.00;52342.09;5018778;28;19964;-72
2023/09/23 06:08:42;;;;;;;;;;;;;;;-144.99;100.00;52342.09;5019421;28;21549;-72
2023/09/23 06:11:11;;;;;;;;;;;;;;;-144.99;100.00;52358.41;5019718;28;20425;-72
2023/09/23 06:13:38;;;;;;;;;;;;;;;-144.99;100.00;52374.72;5018333;28;19943;-73
2023/09/23 06:16:05;;;;;;;;;;;;;;;-144.99;100.00;52327.84;5021729;28;19965;-72
2023/09/23 06:18:32;;;;;;;;;;;;;;;-144.99;100.00;52350.25;5040340;28;20042;-71
2023/09/23 06:20:59;;;;;;;;;;;;;;;-144.99;100.00;52374.72;5040822;28;19977;-72
2023/09/23 06:23:25;;;;;;;;;;;;;;;-144.99;100.00;52382.88;5037866;28;19945;-73
2023/09/23 06:25:53;;;;;;;;;;;;;;;-144.99;100.00;52333.94;5033640;28;19936;-72
2023/09/23 06:28:19;;;;;;;;;;;;;;;-144.99;100.00;52350.25;5035331;28;21100;-72
2023/09/23 06:30:47;;;;;;;;;;;;;;;-144.99;100.00;52329.88;5033457;28;19978;-72
2023/09/23 06:33:13;;;;;;;;;;;;;;;-144.99;100.00;52354.34;5025873;28;20400;-73
2023/09/23 06:35:40;;;;;;;;;;;;;;;-144.99;100.00;52346.19;5026827;28;19947;-71
2023/09/23 06:38:06;;;;;;;;;;;;;;;-144.99;100.00;52321.72;5034340;28;19947;-71
2023/09/23 06:40:33;;;;;;;;;;;;;;;-144.99;100.00;52378.78;5032297;28;19935;-71
2023/09/23 06:42:59;;;;;;;;;;;;;;;-144.99;100.00;52358.41;5030784;28;19942;-71
2023/09/23 06:45:26;;;;;;;;;;;;;;;-144.99;100.00;52321.72;5029059;28;19938;-71
2023/09/23 06:47:53;;;;;;;;;;;;;;;-144.99;100.00;52362.50;5025868;28;20002;-72
2023/09/23 06:50:20;;;;;;;;;;;;;;;-144.99;100.00;52350.25;5030197;28;19997;-71
2023/09/23 06:52:46;;;;;;;;;;;;;;;-144.99;100.00;52366.56;5025993;28;19940;-72
2023/09/23 06:55:13;;;;;;;;;;;;;;;-144.99;100.00;52374.72;5033806;28;19943;-72
2023/09/23 06:57:39;;;;;;;;;;;;;;;-144.99;100.00;52374.72;5030835;28;19975;-71
2023/09/23 07:00:07;;;;;;;;;;;;;;;-144.99;100.00;52372.69;5027215;28;20012;-73
2023/09/23 07:02:34;;;;;;;;;;;;;;;-144.99;100.00;52386.94;5020950;28;19966;-71
2023/09/23 07:05:02;;;;;;;;;;;;;;;-144.99;100.00;52358.41;5014876;28;20087;-71
2023/09/23 07:07:28;;;;;;;;;;;;;;;-144.99;100.00;52358.41;5015451;28;20059;-71
2023/09/23 07:09:55;;;;;;;;;;;;;;;-144.99;100.00;52376.75;5015131;28;20004;-71
2023/09/23 07:12:21;;;;;;;;;;;;;;;-144.99;100.00;52346.19;5014721;28;20038;-71
2023/09/23 07:14:49;;;;;;;;;;;;;;;-144.99;100.00;52374.72;5016109;28;19946;-72
2023/09/23 07:17:17;;;;;;;;;;;;;;;-144.99;100.00;52382.88;5029428;23;20017;-68
2023/09/23 07:19:46;;;;;;;;;;;;;;;-144.99;100.00;52315.59;5031114;28;19957;-67
2023/09/23 07:22:14;;;;;;;;;;;;;;;-144.99;100.00;52358.41;5033909;28;20210;-67
2023/09/23 07:24:40;;;;;;;;;;;;;;;-144.99;100.00;52370.63;5031596;28;20028;-68
2023/09/23 07:27:07;;;;;;;;;;;;;;;-144.99;100.00;52321.72;5032201;28;20019;-68
2023/09/23 07:29:33;;;;;;;;;;;;;;;-144.99;100.00;52342.09;5032122;28;20425;-66
2023/09/23 07:32:00;;;;;;;;;;;;;;;-144.99;100.00;52317.66;5029890;28;20088;-67
2023/09/23 07:34:27;;;;;;;;;;;;;;;-144.99;100.00;52358.41;5029837;28;21192;-66
2023/09/23 07:36:53;;;;;;;;;;;;;;;-144.99;100.00;52338.03;5032318;28;20004;-65
2023/09/23 07:39:22;;;;;;;;;;;;;;;-144.99;100.00;52309.50;5032569;28;20064;-67
2023/09/23 07:41:48;;;;;;;;;;;;;;;-144.99;100.00;52323.75;5033878;28;20048;-68
2023/09/23 07:44:15;;;;;;;;;;;;;;;-144.99;100.00;52329.88;5032971;28;19944;-66
2023/09/23 07:46:42;;;;;;;;;;;;;;;-144.99;100.00;52323.75;5032787;28;19950;-66
2023/09/23 07:49:09;;;;;;;;;;;;;;;-144.99;100.00;52329.88;5032805;28;20110;-66
2023/09/23 07:51:37;;;;;;;;;;;;;;;-144.99;100.00;52293.19;5039613;28;20047;-68
2023/09/23 07:54:03;;;;;;;;;;;;;;;-144.99;100.00;52321.72;5033474;28;20282;-67
2023/09/23 07:56:31;;;;;;;;;;;;;;;-144.99;100.00;52325.81;5036192;28;20419;-68
2023/09/23 07:58:58;;;;;;;;;;;;;;;-144.99;100.00;52362.50;5032590;28;19983;-68
2023/09/23 08:01:24;;;;;;;;;;;;;;;-144.99;100.00;52366.56;5031651;28;19996;-68
2023/09/23 08:03:52;;;;;;;;;;;;;;;-144.99;100.00;52354.34;5033830;28;20084;-67
2023/09/23 08:06:18;;;;;;;;;;;;;;;-144.99;100.00;52336.00;5034617;28;19948;-67
2023/09/23 08:08:45;;;;;;;;;;;;;;;-144.99;100.00;52315.59;5034912;28;20006;-68
2023/09/23 08:11:11;;;;;;;;;;;;;;;-144.99;100.00;52333.94;5033299;28;20345;-67
2023/09/23 08:13:39;;;;;;;;;;;;;;;-144.99;100.00;52307.47;5032866;28;19945;-67
2023/09/23 08:16:05;;;;;;;;;;;;;;;-144.99;100.00;52350.25;5033868;28;19950;-70
2023/09/23 08:18:33;;;;;;;;;;;;;;;-144.99;100.00;52366.56;5035456;28;20042;-70
2023/09/23 08:20:59;;;;;;;;;;;;;;;-144.99;100.00;52346.19;5047245;28;20293;-70
2023/09/23 08:23:26;;;;;;;;;;;;;;;-144.99;100.00;52342.09;5046300;28;20127;-71
2023/09/23 08:25:52;;;;;;;;;;;;;;;-144.99;100.00;52342.09;5044190;28;19943;-71
2023/09/23 08:28:19;;;;;;;;;;;;;;;-144.99;100.00;52333.94;5040381;28;20035;-69
2023/09/23 08:30:49;;;;;;;;;;;;;;;-144.99;100.00;52344.16;5043351;28;20069;-70
2023/09/23 08:33:16;;;;;;;;;;;;;;;-144.99;100.00;52386.94;5037007;28;19990;-70
2023/09/23 08:35:42;;;;;;;;;;;;;;;-144.99;100.00;52319.69;5037232;28;19972;-70
2023/09/23 08:38:09;;;;;;;;;;;;;;;-144.99;100.00;52354.34;5040640;28;19953;-70
2023/09/23 08:40:36;;;;;;;;;;;;;;;-144.99;100.00;52370.63;5042229;28;20578;-69
2023/09/23 08:43:04;;;;;;;;;;;;;;;-144.99;100.00;52342.09;5049684;28;20029;-70
2023/09/23 08:45:31;;;;;;;;;;;;;;;-144.99;100.00;52378.78;5047580;28;20041;-70
2023/09/23 08:47:59;;;;;;;;;;;;;;;-144.99;100.00;52366.56;5050232;28;20046;-71
2023/09/23 08:50:26;;;;;;;;;;;;;;;-144.99;100.00;52380.84;5050245;28;20067;-70
2023/09/23 08:52:53;;;;;;;;;;;;;;;-144.99;100.00;52364.53;5048280;28;20094;-69
2023/09/23 08:55:21;;;;;;;;;;;;;;;-144.99;100.00;52342.09;5043583;28;20033;-69
2023/09/23 08:57:47;;;;;;;;;;;;;;;-144.99;100.00;52386.94;5045788;28;20381;-70
2023/09/23 09:00:17;;;;;;;;;;;;;;;-144.99;100.00;52350.25;5046710;28;19955;-71
2023/09/23 09:02:44;;;;;;;;;;;;;;;-144.99;100.00;52329.88;5047459;28;19942;-70
2023/09/23 09:05:15;;;;;;;;;;;;;;;-144.99;100.00;52366.56;4437711;28;10000767;-71
2023/09/23 09:07:41;;;;;;;;;;;;;;;-144.99;100.00;52362.50;5039899;28;19997;-70
2023/09/23 09:10:08;;;;;;;;;;;;;;;-144.99;100.00;52321.72;5043141;28;20010;-70
2023/09/23 09:12:35;;;;;;;;;;;;;;;-144.99;100.00;52317.66;5044252;28;20006;-71
2023/09/23 09:15:01;;;;;;;;;;;;;;;-144.99;100.00;52346.19;5041822;28;19953;-70
2023/09/23 09:17:28;;;;;;;;;;;;;;;-144.99;100.00;52342.09;5044517;28;19954;-70
2023/09/23 09:19:54;;;;;;;;;;;;;;;-144.99;100.00;52333.94;5044947;28;20501;-70
2023/09/23 09:22:22;;;;;;;;;;;;;;;-144.99;100.00;52350.25;5044879;28;19945;-71
2023/09/23 09:24:49;;;;;;;;;;;;;;;-144.99;100.00;52280.97;5043676;28;20391;-70
2023/09/23 09:27:15;;;;;;;;;;;;;;;-144.99;97.95;52309.50;5040795;28;19947;-70
2023/09/23 09:29:42;;;;;;;;;;;;;;;-144.99;94.14;52283.00;5040199;28;19972;-71
2023/09/23 09:32:10;;;;;;;;;;;;;;;-144.99;91.26;52280.97;5045091;28;20057;-71
2023/09/23 09:34:41;;;;;;;;;;;;;;;-144.99;89.81;52276.88;5046777;28;20228;-72
2023/09/23 09:37:11;;;;;;;;;;;;;;;-144.99;86.84;52234.09;5043661;28;20328;-72
2023/09/23 09:39:43;;;;;;;;;;;;;;;-144.99;86.95;52264.66;5050018;28;20350;-72
2023/09/23 09:42:13;;;;;;;;;;;;;;;-144.99;87.03;52301.34;5044982;28;19941;-72
2023/09/23 09:44:42;;;;;;;;;;;;;;;-144.99;89.09;52289.13;5046499;28;20000;-71
2023/09/23 09:47:09;;;;;;;;;;;;;;;-144.99;89.25;52305.41;5046243;28;20009;-71
2023/09/23 09:49:37;;;;;;;;;;;;;;;-144.99;85.10;52236.13;5046412;28;19968;-71
2023/09/23 09:52:04;;;;;;;;;;;;;;;-144.99;82.67;52317.66;5046088;28;20029;-71
2023/09/23 09:54:32;;;;;;;;;;;;;;;-144.99;81.72;52256.50;5046626;28;19946;-74
2023/09/23 09:57:00;;;;;;;;;;;;;;;-144.99;82.32;52266.69;5045665;28;19951;-71
2023/09/23 09:59:28;;;;;;;;;;;;;;;-144.99;83.64;52260.56;5044523;28;20377;-70
2023/09/23 10:01:56;;;;;;;;;;;;;;;-144.99;86.74;52317.66;5042962;28;20044;-72
2023/09/23 10:04:23;;;;;;;;;;;;;;;-144.99;87.80;52299.31;5046115;28;19992;-73
2023/09/23 10:06:51;;;;;;;;;;;;;;;-144.99;89.31;52374.72;5043914;28;20115;-72
2023/09/23 10:09:18;;;;;;;;;;;;;;;-144.99;90.42;52352.28;5046827;28;19955;-72
2023/09/23 10:11:52;;;;;;;;;;;;;;;-144.99;89.82;52291.16;5046618;28;20275;-71
2023/09/23 10:14:20;;;;;;;;;;;;;;;-144.99;85.30;52297.25;5044631;28;20465;-72
2023/09/23 10:16:50;;;;;;;;;;;;;;;-144.99;83.28;52301.34;5043870;28;20034;-71
2023/09/23 10:19:19;;;;;;;;;;;;;;;-144.99;80.61;52244.28;5044505;28;19993;-70
2023/09/23 10:21:47;;;;;;;;;;;;;;;-144.99;77.19;52221.84;5042260;28;19946;-71
2023/09/23 10:24:20;;;;;;;;;;;;;;;-144.99;75.19;52166.81;5041032;28;19945;-72
2023/09/23 10:26:46;;;;;;;;;;;;;;;-144.99;72.17;52264.66;5031449;28;20046;-72
2023/09/23 10:29:13;;;;;;;;;;;;;;;-144.99;72.61;52264.66;5044384;28;19963;-72
2023/09/23 10:31:41;;;;;;;;;;;;;;;-144.99;71.69;52126.06;5045163;28;19983;-71
2023/09/23 10:34:10;;;;;;;;;;;;;;;-144.99;70.07;52254.47;5039374;28;19949;-72
2023/09/23 10:36:36;;;;;;;;;;;;;;;-144.99;72.98;52166.81;5041811;28;19937;-72
2023/09/23 10:39:06;;;;;;;;;;;;;;;-144.99;74.78;52177.00;5048755;28;20028;-72
2023/09/23 10:41:33;;;;;;;;;;;;;;;-144.99;71.99;52264.66;5047821;28;20037;-73
2023/09/23 10:43:59;;;;;;;;;;;;;;;-144.99;70.91;52083.25;5048068;28;19953;-73
2023/09/23 10:46:26;;;;;;;;;;;;;;;-144.99;68.92;52075.09;5050233;28;20365;-72
2023/09/23 10:48:54;;;;;;;;;;;;;;;-144.99;67.82;52187.19;5049227;28;20353;-71
2023/09/23 10:51:20;;;;;;;;;;;;;;;-144.99;69.67;52244.28;5050008;28;20445;-73
2023/09/23 10:53:50;;;;;;;;;;;;;;;-144.99;70.88;52183.13;5046149;28;19997;-72
2023/09/23 10:56:16;;;;;;;;;;;;;;;-144.99;71.60;52240.19;5049844;28;19937;-72
2023/09/23 10:58:43;;;;;;;;;;;;;;;-144.99;73.06;52207.59;5048070;28;19946;-72
2023/09/23 11:01:10;;;;;;;;;;;;;;;-144.99;72.72;52280.97;5040827;28;19997;-73
2023/09/23 11:03:40;;;;;;;;;;;;;;;-144.99;70.50;52115.88;5038403;28;20496;-73
2023/09/23 11:06:08;;;;;;;;;;;;;;;-144.99;68.67;52227.97;5038832;28;20029;-72
2023/09/23 11:08:36;;;;;;;;;;;;;;;-144.99;69.52;52260.56;5049612;28;20056;-71
2023/09/23 11:11:02;;;;;;;;;;;;;;;-144.99;71.88;52297.25;5038950;28;19953;-73
2023/09/23 11:13:29;;;;;;;;;;;;;;;-144.99;74.76;52285.03;5044559;28;20130;-72
2023/09/23 11:15:56;;;;;;;;;;;;;;;-144.99;75.42;52315.59;5045799;28;20036;-72
2023/09/23 11:18:23;;;;;;;;;;;;;;;-144.99;76.33;52109.75;5048630;28;20359;-70
2023/09/23 11:20:51;;;;;;;;;;;;;;;-144.99;73.44;52225.94;5050105;28;19961;-70
2023/09/23 11:23:19;;;;;;;;;;;;;;;-144.99;73.84;52115.88;5047648;28;19937;-72
2023/09/23 11:25:46;;;;;;;;;;;;;;;-144.99;73.62;52199.44;5043056;28;19941;-72
2023/09/23 11:28:17;;;;;;;;;;;;;;;-144.99;72.88;52297.25;5043666;28;20437;-70
2023/09/23 11:30:43;;;;;;;;;;;;;;;-144.99;75.13;52289.13;5044286;28;19962;-72
2023/09/23 11:33:11;;;;;;;;;;;;;;;-144.99;77.05;52244.28;5043463;28;19974;-68
2023/09/23 11:35:38;;;;;;;;;;;;;;;-144.99;78.09;52321.72;5044168;28;19951;-73
2023/09/23 11:38:05;;;;;;;;;;;;;;;-144.99;79.01;52327.84;5042689;28;19940;-72
2023/09/23 11:40:34;;;;;;;;;;;;;;;-144.99;78.42;52317.66;4692642;28;10000305;-72
2023/09/23 11:43:00;;;;;;;;;;;;;;;-144.99;78.08;52309.50;5035792;28;19946;-72
2023/09/23 11:45:27;;;;;;;;;;;;;;;-144.99;77.41;52280.97;5044499;28;20435;-72
2023/09/23 11:47:55;;;;;;;;;;;;;;;-144.99;77.60;52252.44;5036091;28;19961;-72
2023/09/23 11:50:21;;;;;;;;;;;;;;;-144.99;75.86;52252.44;5036397;28;19964;-72
2023/09/23 11:52:48;;;;;;;;;;;;;;;-144.99;76.14;52323.75;5031516;28;20011;-72
2023/09/23 11:55:16;;;;;;;;;;;;;;;-144.99;77.17;52317.66;5032689;28;20027;-72
2023/09/23 11:57:44;;;;;;;;;;;;;;;-144.99;77.28;52289.13;5032801;28;19985;-73
2023/09/23 12:00:11;;;;;;;;;;;;;;;-144.99;76.29;52325.81;5032599;28;21106;-72
2023/09/23 12:02:39;;;;;;;;;;;;;;;-144.99;77.50;52313.56;5037400;28;19946;-72
2023/09/23 12:05:07;;;;;;;;;;;;;;;-144.99;77.21;52358.41;5044534;28;19951;-72
2023/09/23 12:07:33;;;;;;;;;;;;;;;-144.99;78.95;52305.41;5050489;28;19945;-71
2023/09/23 12:10:00;;;;;;;;;;;;;;;-144.99;79.69;52317.66;5039359;28;19968;-72
2023/09/23 12:12:27;;;;;;;;;;;;;;;-144.99;80.82;52342.09;5035707;28;20027;-72
2023/09/23 12:14:55;;;;;;;;;;;;;;;-144.99;80.60;52329.88;5044503;28;19951;-73
2023/09/23 12:17:22;;;;;;;;;;;;;;;-144.99;80.14;52325.81;5040721;28;19975;-73
2023/09/23 12:19:48;;;;;;;;;;;;;;;-144.99;78.82;52248.34;5045897;28;20011;-71
2023/09/23 12:22:15;;;;;;;;;;;;;;;-144.99;77.85;52325.81;5044013;28;19980;-71